sensor_id;sensor_type;location;lat;lon;timestamp;temperature;humidity
21104;DHT22;10710;53.398;-1.514;2023-03-03T00:02:22;7.30;99.90
21104;DHT22;10710;53.398;-1.514;2023-03-03T00:04:48;7.20;99.90
21104;DHT22;10710;53.398;-1.514;2023-03-03T00:07:16;7.10;99.90
21104;DHT22;10710;53.398;-1.514;2023-03-03T00:09:48;7.00;99.90
21104;DHT22;10710;53.398;-1.514;2023-03-03T00:14:47;6.90;99.90
21104;DHT22;10710;53.398;-1.514;2023-03-03T00:17:25;6.80;99.90
21104;DHT22;10710;53.398;-1.514;2023-03-03T00:19:51;6.80;99.90
21104;DHT22;10710;53.398;-1.514;2023-03-03T00:22:30;6.80;99.90
21104;DHT22;10710;53.398;-1.514;2023-03-03T00:25:31;6.80;99.90
21104;DHT22;10710;53.398;-1.514;2023-03-03T00:28:22;6.80;99.90
21104;DHT22;10710;53.398;-1.514;2023-03-03T00:30:48;6.80;99.90
21104;DHT22;10710;53.398;-1.514;2023-03-03T00:33:32;6.90;99.90
21104;DHT22;10710;53.398;-1.514;2023-03-03T00:36:19;7.00;99.90
21104;DHT22;10710;53.398;-1.514;2023-03-03T00:38:47;7.00;99.90
21104;DHT22;10710;53.398;-1.514;2023-03-03T00:41:25;7.00;99.90
21104;DHT22;10710;53.398;-1.514;2023-03-03T00:43:51;7.10;99.90
21104;DHT22;10710;53.398;-1.514;2023-03-03T00:46:20;7.00;99.90
21104;DHT22;10710;53.398;-1.514;2023-03-03T00:48:47;6.90;99.90
21104;DHT22;10710;53.398;-1.514;2023-03-03T00:53:48;6.80;99.90
21104;DHT22;10710;53.398;-1.514;2023-03-03T00:56:14;6.90;99.90
21104;DHT22;10710;53.398;-1.514;2023-03-03T00:58:40;6.90;99.90
21104;DHT22;10710;53.398;-1.514;2023-03-03T01:01:08;6.80;99.90
21104;DHT22;10710;53.398;-1.514;2023-03-03T01:03:34;6.90;99.90
21104;DHT22;10710;53.398;-1.514;2023-03-03T01:06:00;6.80;99.90
21104;DHT22;10710;53.398;-1.514;2023-03-03T01:08:25;6.80;99.90
21104;DHT22;10710;53.398;-1.514;2023-03-03T01:10:56;6.90;99.90
21104;DHT22;10710;53.398;-1.514;2023-03-03T01:13:27;6.80;99.90
21104;DHT22;10710;53.398;-1.514;2023-03-03T01:15:53;6.70;99.90
21104;DHT22;10710;53.398;-1.514;2023-03-03T01:18:19;6.70;99.90
21104;DHT22;10710;53.398;-1.514;2023-03-03T01:20:45;6.70;99.90
21104;DHT22;10710;53.398;-1.514;2023-03-03T01:23:10;6.60;99.90
21104;DHT22;10710;53.398;-1.514;2023-03-03T01:25:36;6.50;99.90
21104;DHT22;10710;53.398;-1.514;2023-03-03T01:28:02;6.60;99.90
21104;DHT22;10710;53.398;-1.514;2023-03-03T01:30:28;6.60;99.90
21104;DHT22;10710;53.398;-1.514;2023-03-03T01:32:54;6.70;99.90
21104;DHT22;10710;53.398;-1.514;2023-03-03T01:35:20;6.70;99.90
21104;DHT22;10710;53.398;-1.514;2023-03-03T01:37:45;6.80;99.90
21104;DHT22;10710;53.398;-1.514;2023-03-03T01:40:20;6.70;99.90
21104;DHT22;10710;53.398;-1.514;2023-03-03T01:42:47;6.60;99.90
21104;DHT22;10710;53.398;-1.514;2023-03-03T01:45:25;6.70;99.90
21104;DHT22;10710;53.398;-1.514;2023-03-03T01:48:20;6.80;99.90
21104;DHT22;10710;53.398;-1.514;2023-03-03T01:50:52;6.80;99.90
21104;DHT22;10710;53.398;-1.514;2023-03-03T01:53:41;6.70;99.90
21104;DHT22;10710;53.398;-1.514;2023-03-03T01:56:08;6.80;99.90
21104;DHT22;10710;53.398;-1.514;2023-03-03T01:58:44;6.90;99.90
21104;DHT22;10710;53.398;-1.514;2023-03-03T02:01:14;6.90;99.90
21104;DHT22;10710;53.398;-1.514;2023-03-03T02:03:41;7.00;99.90
21104;DHT22;10710;53.398;-1.514;2023-03-03T02:06:14;6.90;99.90
21104;DHT22;10710;53.398;-1.514;2023-03-03T02:11:33;6.70;99.90
21104;DHT22;10710;53.398;-1.514;2023-03-03T02:14:01;6.60;99.90
21104;DHT22;10710;53.398;-1.514;2023-03-03T02:16:26;6.60;99.90
21104;DHT22;10710;53.398;-1.514;2023-03-03T02:18:53;6.70;99.90
21104;DHT22;10710;53.398;-1.514;2023-03-03T02:21:21;6.70;99.90
21104;DHT22;10710;53.398;-1.514;2023-03-03T02:26:24;6.50;99.90
21104;DHT22;10710;53.398;-1.514;2023-03-03T02:28:50;6.50;99.90
21104;DHT22;10710;53.398;-1.514;2023-03-03T02:31:22;6.60;99.90
21104;DHT22;10710;53.398;-1.514;2023-03-03T02:33:50;6.60;99.90
21104;DHT22;10710;53.398;-1.514;2023-03-03T02:36:19;6.70;99.90
21104;DHT22;10710;53.398;-1.514;2023-03-03T02:39:10;6.60;99.90
21104;DHT22;10710;53.398;-1.514;2023-03-03T02:44:24;6.40;99.90
21104;DHT22;10710;53.398;-1.514;2023-03-03T02:46:52;6.40;99.90
21104;DHT22;10710;53.398;-1.514;2023-03-03T02:49:20;6.40;99.90
21104;DHT22;10710;53.398;-1.514;2023-03-03T02:51:47;6.50;99.90
21104;DHT22;10710;53.398;-1.514;2023-03-03T02:54:14;6.40;99.90
21104;DHT22;10710;53.398;-1.514;2023-03-03T02:56:40;6.30;99.90
21104;DHT22;10710;53.398;-1.514;2023-03-03T02:59:06;6.30;99.90
21104;DHT22;10710;53.398;-1.514;2023-03-03T03:01:32;6.40;99.90
21104;DHT22;10710;53.398;-1.514;2023-03-03T03:04:12;6.40;99.90
21104;DHT22;10710;53.398;-1.514;2023-03-03T03:06:39;6.50;99.90
21104;DHT22;10710;53.398;-1.514;2023-03-03T03:09:06;6.60;99.90
21104;DHT22;10710;53.398;-1.514;2023-03-03T03:11:32;6.60;99.90
21104;DHT22;10710;53.398;-1.514;2023-03-03T03:14:00;6.70;99.90
21104;DHT22;10710;53.398;-1.514;2023-03-03T03:16:26;6.60;99.90
21104;DHT22;10710;53.398;-1.514;2023-03-03T03:18:51;6.70;99.90
21104;DHT22;10710;53.398;-1.514;2023-03-03T03:21:17;6.60;99.90
21104;DHT22;10710;53.398;-1.514;2023-03-03T03:23:44;6.60;99.90
21104;DHT22;10710;53.398;-1.514;2023-03-03T03:26:10;6.60;99.90
21104;DHT22;10710;53.398;-1.514;2023-03-03T03:28:36;6.60;99.90
21104;DHT22;10710;53.398;-1.514;2023-03-03T03:31:04;6.70;99.90
21104;DHT22;10710;53.398;-1.514;2023-03-03T03:33:30;6.60;99.90
21104;DHT22;10710;53.398;-1.514;2023-03-03T03:35:57;6.60;99.90
21104;DHT22;10710;53.398;-1.514;2023-03-03T03:38:23;6.50;99.90
21104;DHT22;10710;53.398;-1.514;2023-03-03T03:40:50;6.50;99.90
21104;DHT22;10710;53.398;-1.514;2023-03-03T03:43:16;6.50;99.90
21104;DHT22;10710;53.398;-1.514;2023-03-03T03:45:42;6.50;99.90
21104;DHT22;10710;53.398;-1.514;2023-03-03T03:48:08;6.40;99.90
21104;DHT22;10710;53.398;-1.514;2023-03-03T03:50:33;6.40;99.90
21104;DHT22;10710;53.398;-1.514;2023-03-03T03:52:59;6.40;99.90
21104;DHT22;10710;53.398;-1.514;2023-03-03T03:55:25;6.40;99.90
21104;DHT22;10710;53.398;-1.514;2023-03-03T03:57:50;6.30;99.90
21104;DHT22;10710;53.398;-1.514;2023-03-03T04:00:16;6.40;99.90
21104;DHT22;10710;53.398;-1.514;2023-03-03T04:02:42;6.30;99.90
21104;DHT22;10710;53.398;-1.514;2023-03-03T04:05:08;6.50;99.90
21104;DHT22;10710;53.398;-1.514;2023-03-03T04:07:34;6.50;99.90
21104;DHT22;10710;53.398;-1.514;2023-03-03T04:09:59;6.50;99.90
21104;DHT22;10710;53.398;-1.514;2023-03-03T04:12:25;6.40;99.90
21104;DHT22;10710;53.398;-1.514;2023-03-03T04:14:51;6.30;99.90
21104;DHT22;10710;53.398;-1.514;2023-03-03T04:17:18;6.20;99.90
21104;DHT22;10710;53.398;-1.514;2023-03-03T04:19:43;6.30;99.90
21104;DHT22;10710;53.398;-1.514;2023-03-03T04:22:09;6.30;99.90
21104;DHT22;10710;53.398;-1.514;2023-03-03T04:24:35;6.20;99.90
21104;DHT22;10710;53.398;-1.514;2023-03-03T04:27:01;6.20;99.90
21104;DHT22;10710;53.398;-1.514;2023-03-03T04:29:27;6.30;99.90
21104;DHT22;10710;53.398;-1.514;2023-03-03T04:31:52;6.20;99.90
21104;DHT22;10710;53.398;-1.514;2023-03-03T04:34:18;6.30;99.90
21104;DHT22;10710;53.398;-1.514;2023-03-03T04:36:44;6.20;99.90
21104;DHT22;10710;53.398;-1.514;2023-03-03T04:39:09;6.20;99.90
21104;DHT22;10710;53.398;-1.514;2023-03-03T04:41:35;6.20;99.90
21104;DHT22;10710;53.398;-1.514;2023-03-03T04:44:01;6.30;99.90
21104;DHT22;10710;53.398;-1.514;2023-03-03T04:46:27;6.20;99.90
21104;DHT22;10710;53.398;-1.514;2023-03-03T04:48:52;6.20;99.90
21104;DHT22;10710;53.398;-1.514;2023-03-03T04:51:18;6.30;99.90
21104;DHT22;10710;53.398;-1.514;2023-03-03T04:53:44;6.20;99.90
21104;DHT22;10710;53.398;-1.514;2023-03-03T04:56:09;6.20;99.90
21104;DHT22;10710;53.398;-1.514;2023-03-03T04:58:35;6.10;99.90
21104;DHT22;10710;53.398;-1.514;2023-03-03T05:01:01;6.20;99.90
21104;DHT22;10710;53.398;-1.514;2023-03-03T05:03:27;6.30;99.90
21104;DHT22;10710;53.398;-1.514;2023-03-03T05:05:53;6.30;99.90
21104;DHT22;10710;53.398;-1.514;2023-03-03T05:08:18;6.40;99.90
21104;DHT22;10710;53.398;-1.514;2023-03-03T05:10:44;6.40;99.90
21104;DHT22;10710;53.398;-1.514;2023-03-03T05:13:10;6.30;99.90
21104;DHT22;10710;53.398;-1.514;2023-03-03T05:15:36;6.40;99.90
21104;DHT22;10710;53.398;-1.514;2023-03-03T05:18:02;6.40;99.90
21104;DHT22;10710;53.398;-1.514;2023-03-03T05:20:28;6.40;99.90
21104;DHT22;10710;53.398;-1.514;2023-03-03T05:22:53;6.30;99.90
21104;DHT22;10710;53.398;-1.514;2023-03-03T05:25:20;6.40;99.90
21104;DHT22;10710;53.398;-1.514;2023-03-03T05:27:45;6.40;99.90
21104;DHT22;10710;53.398;-1.514;2023-03-03T05:30:11;6.40;99.90
21104;DHT22;10710;53.398;-1.514;2023-03-03T05:32:37;6.40;99.90
21104;DHT22;10710;53.398;-1.514;2023-03-03T05:35:04;6.40;99.90
21104;DHT22;10710;53.398;-1.514;2023-03-03T05:37:30;6.40;99.90
21104;DHT22;10710;53.398;-1.514;2023-03-03T05:39:55;6.40;99.90
21104;DHT22;10710;53.398;-1.514;2023-03-03T05:42:21;6.40;99.90
21104;DHT22;10710;53.398;-1.514;2023-03-03T05:44:47;6.50;99.90
21104;DHT22;10710;53.398;-1.514;2023-03-03T05:47:12;6.40;99.90
21104;DHT22;10710;53.398;-1.514;2023-03-03T05:49:38;6.40;99.90
21104;DHT22;10710;53.398;-1.514;2023-03-03T05:52:04;6.40;99.90
21104;DHT22;10710;53.398;-1.514;2023-03-03T05:54:30;6.30;99.90
21104;DHT22;10710;53.398;-1.514;2023-03-03T05:56:56;6.40;99.90
21104;DHT22;10710;53.398;-1.514;2023-03-03T05:59:22;6.30;99.90
21104;DHT22;10710;53.398;-1.514;2023-03-03T06:01:48;6.30;99.90
21104;DHT22;10710;53.398;-1.514;2023-03-03T06:04:14;6.40;99.90
21104;DHT22;10710;53.398;-1.514;2023-03-03T06:06:40;6.40;99.90
21104;DHT22;10710;53.398;-1.514;2023-03-03T06:09:06;6.40;99.90
21104;DHT22;10710;53.398;-1.514;2023-03-03T06:11:31;6.30;99.90
21104;DHT22;10710;53.398;-1.514;2023-03-03T06:13:57;6.30;99.90
21104;DHT22;10710;53.398;-1.514;2023-03-03T06:16:23;6.40;99.90
21104;DHT22;10710;53.398;-1.514;2023-03-03T06:18:48;6.30;99.90
21104;DHT22;10710;53.398;-1.514;2023-03-03T06:21:14;6.40;99.90
21104;DHT22;10710;53.398;-1.514;2023-03-03T06:23:40;6.40;99.90
21104;DHT22;10710;53.398;-1.514;2023-03-03T06:26:06;6.20;99.90
21104;DHT22;10710;53.398;-1.514;2023-03-03T06:28:31;6.30;99.90
21104;DHT22;10710;53.398;-1.514;2023-03-03T06:30:57;6.40;99.90
21104;DHT22;10710;53.398;-1.514;2023-03-03T06:33:23;6.30;99.90
21104;DHT22;10710;53.398;-1.514;2023-03-03T06:35:53;6.40;99.90
21104;DHT22;10710;53.398;-1.514;2023-03-03T06:38:19;6.40;99.90
21104;DHT22;10710;53.398;-1.514;2023-03-03T06:40:46;6.40;99.90
21104;DHT22;10710;53.398;-1.514;2023-03-03T06:43:12;6.30;99.90
21104;DHT22;10710;53.398;-1.514;2023-03-03T06:45:38;6.20;99.90
21104;DHT22;10710;53.398;-1.514;2023-03-03T06:48:04;6.20;99.90
21104;DHT22;10710;53.398;-1.514;2023-03-03T06:50:30;6.20;99.90
21104;DHT22;10710;53.398;-1.514;2023-03-03T06:53:12;6.20;99.90
21104;DHT22;10710;53.398;-1.514;2023-03-03T06:55:38;6.20;99.90
21104;DHT22;10710;53.398;-1.514;2023-03-03T06:58:18;6.10;99.90
21104;DHT22;10710;53.398;-1.514;2023-03-03T07:00:54;6.10;99.90
21104;DHT22;10710;53.398;-1.514;2023-03-03T07:03:24;6.20;99.90
21104;DHT22;10710;53.398;-1.514;2023-03-03T07:05:49;6.20;99.90
21104;DHT22;10710;53.398;-1.514;2023-03-03T07:08:21;6.20;99.90
21104;DHT22;10710;53.398;-1.514;2023-03-03T07:10:48;6.30;99.90
21104;DHT22;10710;53.398;-1.514;2023-03-03T07:15:51;6.20;99.90
21104;DHT22;10710;53.398;-1.514;2023-03-03T07:20:48;6.10;99.90
21104;DHT22;10710;53.398;-1.514;2023-03-03T07:23:24;6.20;99.90
21104;DHT22;10710;53.398;-1.514;2023-03-03T07:25:50;6.20;99.90
21104;DHT22;10710;53.398;-1.514;2023-03-03T07:28:23;6.10;99.90
21104;DHT22;10710;53.398;-1.514;2023-03-03T07:30:51;6.10;99.90
21104;DHT22;10710;53.398;-1.514;2023-03-03T07:33:27;6.20;99.90
21104;DHT22;10710;53.398;-1.514;2023-03-03T07:35:58;6.10;99.90
21104;DHT22;10710;53.398;-1.514;2023-03-03T07:38:36;6.20;99.90
21104;DHT22;10710;53.398;-1.514;2023-03-03T07:41:05;6.20;99.90
21104;DHT22;10710;53.398;-1.514;2023-03-03T07:43:36;6.20;99.90
21104;DHT22;10710;53.398;-1.514;2023-03-03T07:46:54;6.30;99.90
21104;DHT22;10710;53.398;-1.514;2023-03-03T07:48:58;6.40;99.90
21104;DHT22;10710;53.398;-1.514;2023-03-03T07:51:28;6.30;99.90
21104;DHT22;10710;53.398;-1.514;2023-03-03T07:54:54;6.30;99.90
21104;DHT22;10710;53.398;-1.514;2023-03-03T07:59:37;6.50;99.90
21104;DHT22;10710;53.398;-1.514;2023-03-03T08:02:14;6.50;99.90
21104;DHT22;10710;53.398;-1.514;2023-03-03T08:04:44;6.60;99.90
21104;DHT22;10710;53.398;-1.514;2023-03-03T08:07:19;6.50;99.90
21104;DHT22;10710;53.398;-1.514;2023-03-03T08:09:55;6.60;99.90
21104;DHT22;10710;53.398;-1.514;2023-03-03T08:12:40;6.70;99.90
21104;DHT22;10710;53.398;-1.514;2023-03-03T08:15:29;6.70;99.90
21104;DHT22;10710;53.398;-1.514;2023-03-03T08:17:55;6.80;99.90
21104;DHT22;10710;53.398;-1.514;2023-03-03T08:20:44;6.80;99.90
21104;DHT22;10710;53.398;-1.514;2023-03-03T08:23:11;6.60;99.90
21104;DHT22;10710;53.398;-1.514;2023-03-03T08:25:38;6.70;99.90
21104;DHT22;10710;53.398;-1.514;2023-03-03T08:28:04;6.70;99.90
21104;DHT22;10710;53.398;-1.514;2023-03-03T08:30:29;6.80;99.90
21104;DHT22;10710;53.398;-1.514;2023-03-03T08:32:56;6.90;99.90
21104;DHT22;10710;53.398;-1.514;2023-03-03T08:35:22;6.90;99.90
21104;DHT22;10710;53.398;-1.514;2023-03-03T08:37:48;6.60;99.90
21104;DHT22;10710;53.398;-1.514;2023-03-03T08:40:14;6.50;99.90
21104;DHT22;10710;53.398;-1.514;2023-03-03T08:42:39;6.50;99.90
21104;DHT22;10710;53.398;-1.514;2023-03-03T08:45:05;6.60;99.90
21104;DHT22;10710;53.398;-1.514;2023-03-03T08:47:31;6.60;99.90
21104;DHT22;10710;53.398;-1.514;2023-03-03T08:49:58;6.70;99.90
21104;DHT22;10710;53.398;-1.514;2023-03-03T08:52:23;6.70;99.90
21104;DHT22;10710;53.398;-1.514;2023-03-03T08:54:49;6.70;99.90
21104;DHT22;10710;53.398;-1.514;2023-03-03T08:57:15;6.80;99.90
21104;DHT22;10710;53.398;-1.514;2023-03-03T08:59:41;6.70;99.90
21104;DHT22;10710;53.398;-1.514;2023-03-03T09:02:07;6.60;99.90
21104;DHT22;10710;53.398;-1.514;2023-03-03T09:04:33;6.70;99.90
21104;DHT22;10710;53.398;-1.514;2023-03-03T09:06:58;6.90;99.90
21104;DHT22;10710;53.398;-1.514;2023-03-03T09:09:24;6.90;99.90
21104;DHT22;10710;53.398;-1.514;2023-03-03T09:11:53;7.00;99.90
21104;DHT22;10710;53.398;-1.514;2023-03-03T09:14:26;6.80;99.90
21104;DHT22;10710;53.398;-1.514;2023-03-03T09:16:54;6.80;99.90
21104;DHT22;10710;53.398;-1.514;2023-03-03T09:21:51;6.80;99.90
21104;DHT22;10710;53.398;-1.514;2023-03-03T09:24:37;6.90;99.90
21104;DHT22;10710;53.398;-1.514;2023-03-03T09:27:14;6.90;99.90
21104;DHT22;10710;53.398;-1.514;2023-03-03T09:29:41;6.90;99.90
21104;DHT22;10710;53.398;-1.514;2023-03-03T09:34:54;6.80;99.90
21104;DHT22;10710;53.398;-1.514;2023-03-03T09:37:21;6.80;99.90
21104;DHT22;10710;53.398;-1.514;2023-03-03T09:39:52;6.80;99.90
21104;DHT22;10710;53.398;-1.514;2023-03-03T09:45:19;6.70;99.90
21104;DHT22;10710;53.398;-1.514;2023-03-03T09:48:11;6.60;99.90
21104;DHT22;10710;53.398;-1.514;2023-03-03T09:55:53;6.80;99.90
21104;DHT22;10710;53.398;-1.514;2023-03-03T09:58:31;6.80;99.90
21104;DHT22;10710;53.398;-1.514;2023-03-03T10:04:00;6.60;99.90
21104;DHT22;10710;53.398;-1.514;2023-03-03T10:20:42;7.10;99.90
21104;DHT22;10710;53.398;-1.514;2023-03-03T10:57:25;8.60;99.90
21104;DHT22;10710;53.398;-1.514;2023-03-03T11:00:29;8.70;99.90
21104;DHT22;10710;53.398;-1.514;2023-03-03T11:06:00;8.90;99.90
21104;DHT22;10710;53.398;-1.514;2023-03-03T11:08:33;8.90;99.90
21104;DHT22;10710;53.398;-1.514;2023-03-03T11:11:19;8.90;99.90
21104;DHT22;10710;53.398;-1.514;2023-03-03T11:22:05;8.80;99.90
21104;DHT22;10710;53.398;-1.514;2023-03-03T11:30:33;8.80;99.90
21104;DHT22;10710;53.398;-1.514;2023-03-03T11:33:14;8.80;99.90
21104;DHT22;10710;53.398;-1.514;2023-03-03T11:39:12;8.80;99.90
21104;DHT22;10710;53.398;-1.514;2023-03-03T11:44:15;8.70;99.90
21104;DHT22;10710;53.398;-1.514;2023-03-03T11:46:47;8.50;99.90
21104;DHT22;10710;53.398;-1.514;2023-03-03T11:54:22;8.10;99.90
21104;DHT22;10710;53.398;-1.514;2023-03-03T11:56:50;8.00;99.90
21104;DHT22;10710;53.398;-1.514;2023-03-03T11:59:33;8.00;99.90
21104;DHT22;10710;53.398;-1.514;2023-03-03T12:02:25;7.90;99.90
21104;DHT22;10710;53.398;-1.514;2023-03-03T12:04:56;7.90;99.90
21104;DHT22;10710;53.398;-1.514;2023-03-03T12:13:04;7.80;99.90
21104;DHT22;10710;53.398;-1.514;2023-03-03T12:24:12;8.50;99.90
21104;DHT22;10710;53.398;-1.514;2023-03-03T12:56:12;9.60;99.90
21104;DHT22;10710;53.398;-1.514;2023-03-03T13:06:47;9.90;99.90
21104;DHT22;10710;53.398;-1.514;2023-03-03T13:17:44;9.60;99.90
21104;DHT22;10710;53.398;-1.514;2023-03-03T13:20:45;9.50;99.90
21104;DHT22;10710;53.398;-1.514;2023-03-03T13:25:47;9.30;99.90
21104;DHT22;10710;53.398;-1.514;2023-03-03T13:30:49;9.50;99.90
21104;DHT22;10710;53.398;-1.514;2023-03-03T13:33:29;9.40;99.90
21104;DHT22;10710;53.398;-1.514;2023-03-03T13:36:01;9.50;99.90
21104;DHT22;10710;53.398;-1.514;2023-03-03T13:44:23;9.10;99.90
21104;DHT22;10710;53.398;-1.514;2023-03-03T13:52:28;9.90;99.90
21104;DHT22;10710;53.398;-1.514;2023-03-03T13:55:16;9.90;99.90
21104;DHT22;10710;53.398;-1.514;2023-03-03T13:57:57;10.00;99.90
21104;DHT22;10710;53.398;-1.514;2023-03-03T14:03:30;10.40;99.90
21104;DHT22;10710;53.398;-1.514;2023-03-03T14:06:04;10.20;99.90
21104;DHT22;10710;53.398;-1.514;2023-03-03T14:08:45;10.30;99.90
21104;DHT22;10710;53.398;-1.514;2023-03-03T14:11:21;10.30;99.90
21104;DHT22;10710;53.398;-1.514;2023-03-03T14:14:08;10.20;99.90
21104;DHT22;10710;53.398;-1.514;2023-03-03T14:16:56;10.20;99.90
21104;DHT22;10710;53.398;-1.514;2023-03-03T14:19:32;10.30;99.90
21104;DHT22;10710;53.398;-1.514;2023-03-03T14:22:18;10.40;99.90
21104;DHT22;10710;53.398;-1.514;2023-03-03T14:25:00;10.40;99.90
21104;DHT22;10710;53.398;-1.514;2023-03-03T14:27:34;10.40;99.90
21104;DHT22;10710;53.398;-1.514;2023-03-03T14:30:27;10.50;99.90
21104;DHT22;10710;53.398;-1.514;2023-03-03T14:35:30;10.50;99.90
21104;DHT22;10710;53.398;-1.514;2023-03-03T14:38:02;10.70;99.90
21104;DHT22;10710;53.398;-1.514;2023-03-03T14:40:33;10.80;99.90
21104;DHT22;10710;53.398;-1.514;2023-03-03T14:43:01;10.70;99.90
21104;DHT22;10710;53.398;-1.514;2023-03-03T14:45:36;10.70;99.90
21104;DHT22;10710;53.398;-1.514;2023-03-03T14:48:22;10.80;99.90
21104;DHT22;10710;53.398;-1.514;2023-03-03T14:50:56;10.60;99.90
21104;DHT22;10710;53.398;-1.514;2023-03-03T14:53:41;10.40;99.90
21104;DHT22;10710;53.398;-1.514;2023-03-03T14:58:42;9.90;99.90
21104;DHT22;10710;53.398;-1.514;2023-03-03T15:01:13;9.80;99.90
21104;DHT22;10710;53.398;-1.514;2023-03-03T15:04:04;9.70;99.90
21104;DHT22;10710;53.398;-1.514;2023-03-03T15:06:36;9.80;99.90
21104;DHT22;10710;53.398;-1.514;2023-03-03T15:09:33;10.00;99.90
21104;DHT22;10710;53.398;-1.514;2023-03-03T15:14:48;10.10;99.90
21104;DHT22;10710;53.398;-1.514;2023-03-03T15:17:33;10.30;99.90
21104;DHT22;10710;53.398;-1.514;2023-03-03T15:22:50;10.30;99.90
21104;DHT22;10710;53.398;-1.514;2023-03-03T15:34:32;10.20;99.90
21104;DHT22;10710;53.398;-1.514;2023-03-03T15:40:01;10.10;99.90
21104;DHT22;10710;53.398;-1.514;2023-03-03T15:42:39;9.90;99.90
21104;DHT22;10710;53.398;-1.514;2023-03-03T15:45:19;9.90;99.90
21104;DHT22;10710;53.398;-1.514;2023-03-03T15:53:18;9.80;99.90
21104;DHT22;10710;53.398;-1.514;2023-03-03T15:59:08;10.00;99.90
21104;DHT22;10710;53.398;-1.514;2023-03-03T16:01:44;10.20;99.90
21104;DHT22;10710;53.398;-1.514;2023-03-03T16:04:19;10.20;99.90
21104;DHT22;10710;53.398;-1.514;2023-03-03T16:19:10;10.00;99.90
21104;DHT22;10710;53.398;-1.514;2023-03-03T16:24:42;9.90;99.90
21104;DHT22;10710;53.398;-1.514;2023-03-03T16:30:39;9.80;99.90
21104;DHT22;10710;53.398;-1.514;2023-03-03T16:32:52;9.70;99.90
21104;DHT22;10710;53.398;-1.514;2023-03-03T16:35:25;9.80;99.90
21104;DHT22;10710;53.398;-1.514;2023-03-03T16:37:59;9.80;99.90
21104;DHT22;10710;53.398;-1.514;2023-03-03T16:40:33;9.80;99.90
21104;DHT22;10710;53.398;-1.514;2023-03-03T16:43:22;9.80;99.90
21104;DHT22;10710;53.398;-1.514;2023-03-03T16:45:49;9.80;99.90
21104;DHT22;10710;53.398;-1.514;2023-03-03T16:48:25;9.70;99.90
21104;DHT22;10710;53.398;-1.514;2023-03-03T16:51:19;9.50;99.90
21104;DHT22;10710;53.398;-1.514;2023-03-03T16:56:47;9.50;99.90
21104;DHT22;10710;53.398;-1.514;2023-03-03T17:08:08;9.50;99.90
21104;DHT22;10710;53.398;-1.514;2023-03-03T17:10:50;9.50;99.90
21104;DHT22;10710;53.398;-1.514;2023-03-03T17:24:34;9.40;99.90
21104;DHT22;10710;53.398;-1.514;2023-03-03T17:27:15;9.50;99.90
21104;DHT22;10710;53.398;-1.514;2023-03-03T17:35:32;9.50;99.90
21104;DHT22;10710;53.398;-1.514;2023-03-03T17:38:22;9.40;99.90
21104;DHT22;10710;53.398;-1.514;2023-03-03T17:41:10;9.40;99.90
21104;DHT22;10710;53.398;-1.514;2023-03-03T17:55:32;9.20;99.90
21104;DHT22;10710;53.398;-1.514;2023-03-03T17:58:14;9.20;99.90
21104;DHT22;10710;53.398;-1.514;2023-03-03T18:11:59;8.90;99.90
21104;DHT22;10710;53.398;-1.514;2023-03-03T18:22:49;9.00;99.90
21104;DHT22;10710;53.398;-1.514;2023-03-03T18:25:50;8.90;99.90
21104;DHT22;10710;53.398;-1.514;2023-03-03T18:28:20;8.90;99.90
21104;DHT22;10710;53.398;-1.514;2023-03-03T18:30:55;9.00;99.90
21104;DHT22;10710;53.398;-1.514;2023-03-03T18:33:35;8.90;99.90
21104;DHT22;10710;53.398;-1.514;2023-03-03T18:36:35;8.90;99.90
21104;DHT22;10710;53.398;-1.514;2023-03-03T18:39:04;8.80;99.90
21104;DHT22;10710;53.398;-1.514;2023-03-03T18:42:02;8.80;99.90
21104;DHT22;10710;53.398;-1.514;2023-03-03T18:44:27;8.80;99.90
21104;DHT22;10710;53.398;-1.514;2023-03-03T18:46:54;8.80;99.90
21104;DHT22;10710;53.398;-1.514;2023-03-03T18:52:27;8.80;99.90
21104;DHT22;10710;53.398;-1.514;2023-03-03T18:55:01;8.90;99.90
21104;DHT22;10710;53.398;-1.514;2023-03-03T18:57:27;8.80;99.90
21104;DHT22;10710;53.398;-1.514;2023-03-03T19:00:22;8.80;99.90
21104;DHT22;10710;53.398;-1.514;2023-03-03T19:02:57;8.90;99.90
21104;DHT22;10710;53.398;-1.514;2023-03-03T19:05:49;8.90;99.90
21104;DHT22;10710;53.398;-1.514;2023-03-03T19:08:24;8.80;99.90
21104;DHT22;10710;53.398;-1.514;2023-03-03T19:16:06;8.60;99.90
21104;DHT22;10710;53.398;-1.514;2023-03-03T19:18:34;8.50;99.90
21104;DHT22;10710;53.398;-1.514;2023-03-03T19:21:29;8.50;99.90
21104;DHT22;10710;53.398;-1.514;2023-03-03T19:29:24;8.40;99.90
21104;DHT22;10710;53.398;-1.514;2023-03-03T19:35:14;8.50;99.90
21104;DHT22;10710;53.398;-1.514;2023-03-03T19:40:51;8.50;99.90
21104;DHT22;10710;53.398;-1.514;2023-03-03T19:43:46;8.50;99.90
21104;DHT22;10710;53.398;-1.514;2023-03-03T19:49:26;8.50;99.90
21104;DHT22;10710;53.398;-1.514;2023-03-03T20:01:17;8.30;99.90
21104;DHT22;10710;53.398;-1.514;2023-03-03T20:12:49;8.40;99.90
21104;DHT22;10710;53.398;-1.514;2023-03-03T20:18:19;8.30;99.90
21104;DHT22;10710;53.398;-1.514;2023-03-03T20:26:34;8.10;99.90
21104;DHT22;10710;53.398;-1.514;2023-03-03T20:32:02;8.30;99.90
21104;DHT22;10710;53.398;-1.514;2023-03-03T20:37:52;8.20;99.90
21104;DHT22;10710;53.398;-1.514;2023-03-03T20:46:20;8.10;99.90
21104;DHT22;10710;53.398;-1.514;2023-03-03T20:54:37;8.10;99.90
21104;DHT22;10710;53.398;-1.514;2023-03-03T20:57:24;8.10;99.90
21104;DHT22;10710;53.398;-1.514;2023-03-03T21:00:14;8.10;99.90
21104;DHT22;10710;53.398;-1.514;2023-03-03T21:03:26;8.00;99.90
21104;DHT22;10710;53.398;-1.514;2023-03-03T21:05:56;8.10;99.90
21104;DHT22;10710;53.398;-1.514;2023-03-03T21:11:16;8.00;99.90
21104;DHT22;10710;53.398;-1.514;2023-03-03T21:13:47;8.10;99.90
21104;DHT22;10710;53.398;-1.514;2023-03-03T21:21:23;8.00;99.90
21104;DHT22;10710;53.398;-1.514;2023-03-03T21:23:49;7.80;99.90
21104;DHT22;10710;53.398;-1.514;2023-03-03T21:29:25;7.70;99.90
21104;DHT22;10710;53.398;-1.514;2023-03-03T21:31:52;7.70;99.90
21104;DHT22;10710;53.398;-1.514;2023-03-03T21:36:46;7.60;99.90
21104;DHT22;10710;53.398;-1.514;2023-03-03T21:39:20;7.50;99.90
21104;DHT22;10710;53.398;-1.514;2023-03-03T21:42:10;7.50;99.90
21104;DHT22;10710;53.398;-1.514;2023-03-03T21:44:40;7.60;99.90
21104;DHT22;10710;53.398;-1.514;2023-03-03T21:47:10;7.70;99.90
21104;DHT22;10710;53.398;-1.514;2023-03-03T21:49:40;7.70;99.90
21104;DHT22;10710;53.398;-1.514;2023-03-03T21:52:08;7.80;99.90
21104;DHT22;10710;53.398;-1.514;2023-03-03T21:54:34;7.80;99.90
21104;DHT22;10710;53.398;-1.514;2023-03-03T21:57:00;7.80;99.90
21104;DHT22;10710;53.398;-1.514;2023-03-03T21:59:26;7.80;99.90
21104;DHT22;10710;53.398;-1.514;2023-03-03T22:01:54;7.80;99.90
21104;DHT22;10710;53.398;-1.514;2023-03-03T22:04:20;7.90;99.90
21104;DHT22;10710;53.398;-1.514;2023-03-03T22:06:46;7.90;99.90
21104;DHT22;10710;53.398;-1.514;2023-03-03T22:09:12;7.80;99.90
21104;DHT22;10710;53.398;-1.514;2023-03-03T22:11:38;7.90;99.90
21104;DHT22;10710;53.398;-1.514;2023-03-03T22:14:05;7.80;99.90
21104;DHT22;10710;53.398;-1.514;2023-03-03T22:16:33;7.80;99.90
21104;DHT22;10710;53.398;-1.514;2023-03-03T22:18:59;7.80;99.90
21104;DHT22;10710;53.398;-1.514;2023-03-03T22:21:25;7.70;99.90
21104;DHT22;10710;53.398;-1.514;2023-03-03T22:23:51;7.80;99.90